Pine Bush, New York
Current Conditions -  °F | °C
As of 1:54 AM on Thursday 18 Dec 2014 (Local Time) from KMGJ Reporting Station
Overcast Overcast  
Wind Chill: 33°   Ceiling: 3700
Heat Index: 38°   Visibility: 10mi
Dew Point: 26°   Wind: 7mph
Humidity: 62%   Direction: 290°WNW
Pressure: 29.87"   Gusts: NA
Location:  41.61°N, 74.3°W
Report Text: KMGJ 180654Z AUTO 29006KT 10SM OVC037 03/M03 A2987 RMK AO2 SLP115 T00331033 TSNO
Loading
Personal Weather Stations






























Interactive Weather Map New forecast layout! Learn more

10-Day Weather Forecast

Advertisements
Track Severe Weather on mobile